• Join FlightAware (Why Join?)
  • Login
  • US Flag 
06:16PM EDT


 

Airport Tracker/Info


-or-


 

Live Flight TrackerFlight Track Log ✈ CDG1157 ✈ 20-Nov-2013 ✈ ZSJN / TNA - ZBAA / PEK

Flight Track Log - Related Links

Times and Time Zones

All times are in EST time to prevent confusion due to time zone crossing. See the CDG1157 flight status page for this flight to view local times or setup timezone preferences in your user account.

Time Position Orientation Groundspeed Altitude Reporting Facility
EST Latitude Longitude Course Direction KTS MPH feet Rate Location/Type
04:28AM 37.4207 117.1095 351° North  Level Estimated
04:29AM 37.4720 117.0998 351° North  Level Estimated
04:30AM 37.5233 117.0900 351° North  Level Estimated
04:31AM 37.5746 117.0802 351° North  Level Estimated
04:32AM 37.6258 117.0704 351° North  Level Estimated
04:33AM 37.6771 117.0606 351° North  Level Estimated
04:34AM 37.7284 117.0508 351° North  Level Estimated
04:35AM 37.7797 117.0409 351° North  Level Estimated
04:36AM 37.8310 117.0311 351° North  Level Estimated
04:37AM 37.8822 117.0212 351° North  Level Estimated
04:38AM 37.9335 117.0113 351° North  Level Estimated
04:39AM 37.9848 117.0014 351° North  Level Estimated
04:40AM 38.0360 116.9915 351° North  Level Estimated
04:41AM 38.0873 116.9816 351° North  Level Estimated
04:42AM 38.1386 116.9717 351° North  Level Estimated
04:43AM 38.1899 116.9617 351° North  Level Estimated
04:44AM 38.2411 116.9518 351° North  Level Estimated
04:45AM 38.2924 116.9418 351° North  Level Estimated
04:46AM 38.3437 116.9318 351° North  Level Estimated
04:47AM 38.3949 116.9218 351° North  Level Estimated
04:48AM 38.4462 116.9118 351° North  Level Estimated
04:49AM 38.4975 116.9017 351° North  Level Estimated
04:50AM 38.5487 116.8917 351° North  Level Estimated
04:51AM 38.6000 116.8816 351° North  Level Estimated
04:52AM 38.6513 116.8715 351° North  Level Estimated
04:53AM 38.7025 116.8614 351° North  Level Estimated
04:54AM 38.7538 116.8513 351° North  Level Estimated
04:55AM 38.8050 116.8412 351° North  Level Estimated
04:56AM 38.8563 116.8311 351° North  Level Estimated
04:57AM 38.9076 116.8209 351° North  Level Estimated
04:58AM 38.9588 116.8107 351° North  Level Estimated
04:59AM 39.0101 116.8006 351° North  Level Estimated
05:00AM 39.0613 116.7904 351° North  Level Estimated
05:01AM 39.1126 116.7802 351° North  Level Estimated
05:02AM 39.1638 116.7699 351° North  Level Estimated
05:03AM 39.2151 116.7597 351° North  Level Estimated
05:04AM 39.2663 116.7495 351° North  Level Estimated
05:05AM 39.3176 116.7392 351° North  Level Estimated
05:06AM 39.3689 116.7289 351° North  Level Estimated
05:07AM 39.4201 116.7186 351° North  Level Estimated
05:08AM 39.4714 116.7083 351° North  Level Estimated
05:09AM 39.5226 116.6980 351° North  Level Estimated
05:10AM 39.5738 116.6876 351° North  Level Estimated
05:11AM 39.6251 116.6772 351° North  Level Estimated
05:12AM 39.6763 116.6669 351° North  Level Estimated
05:13AM 39.7276 116.6565 351° North  Level Estimated
05:14AM 39.7788 116.6461 351° North  Level Estimated
05:15AM 39.8301 116.6356 351° North  Level Estimated
05:16AM 39.8813 116.6252 351° North  Level Estimated
05:17AM 39.9325 116.6148 351° North  Level Estimated
05:18AM 39.9838 116.6043 351° North  Level Estimated
05:19AM 40.0350 116.5938 351° North  Level Estimated
05:20AM 40.0801 116.5846 351° North  Level Estimated
05:21AM 40.0801 116.5846 288° West  Level Estimated
05:22AM 40.0801 116.5846 288° West  Level Estimated
05:23AM 40.0801 116.5846 288° West  Level Estimated
05:24AM 40.0801 116.5846 288° West  Level Estimated
05:25AM 40.0801 116.5846 288° West  Level Estimated
05:26AM 40.0801 116.5846 288° West  Level Estimated
05:27AM 40.0801 116.5846 288° West  Level Estimated
05:28AM 40.0801 116.5846 288° West  Level Estimated
05:29AM 40.0801 116.5846 288° West  Level Estimated
05:30AM 40.0801 116.5846 288° West  Level Estimated
05:31AM 40.0801 116.5846 288° West  Level Estimated
05:32AM 40.0801 116.5846 288° West  Level Estimated
05:33AM 40.0801 116.5846 288° West  Level Estimated
05:34AM 40.0801 116.5846 288° West  Level Estimated
05:35AM 40.0801 116.5846 288° West  Level Estimated
05:36AM 40.0801 116.5846 288° West  Level Estimated